createdAt,value
2023-12-14T00:00:38.041Z,29.20
2023-12-14T00:06:06.837Z,29.85
2023-12-14T00:11:15.653Z,26.65
2023-12-14T00:16:22.035Z,28.97
2023-12-14T00:21:28.421Z,30.63
2023-12-14T00:26:36.824Z,32.07
2023-12-14T00:31:45.359Z,30.73
2023-12-14T00:36:51.345Z,30.05
2023-12-14T00:41:59.965Z,26.63
2023-12-14T00:47:11.342Z,28.55
2023-12-14T00:52:17.595Z,27.50
2023-12-14T00:57:26.418Z,29.30
2023-12-14T01:02:32.770Z,27.05
2023-12-14T01:07:41.853Z,24.60
2023-12-14T01:12:50.105Z,27.13
2023-12-14T01:17:58.119Z,22.97
2023-12-14T01:23:06.680Z,21.48
2023-12-14T01:28:16.363Z,25.73
2023-12-14T01:33:22.149Z,26.07
2023-12-14T01:38:28.490Z,26.63
2023-12-14T01:43:37.108Z,23.27
2023-12-14T01:48:43.685Z,25.65
2023-12-14T01:53:52.677Z,28.13
2023-12-14T01:59:01.151Z,23.93
2023-12-14T02:04:08.491Z,24.08
2023-12-14T02:09:14.612Z,24.83
2023-12-14T02:14:26.884Z,18.35
2023-12-14T02:19:32.702Z,20.08
2023-12-14T02:24:42.134Z,17.73
2023-12-14T02:29:47.829Z,17.02
2023-12-14T02:34:53.749Z,16.43
2023-12-14T02:40:02.541Z,17.10
2023-12-14T02:45:10.067Z,14.05
2023-12-14T02:50:16.312Z,11.87
2023-12-14T02:55:26.439Z,10.30
2023-12-14T03:00:32.421Z,11.97
2023-12-14T03:05:38.716Z,11.07
2023-12-14T03:10:47.164Z,15.65
2023-12-14T03:15:53.777Z,15.03
2023-12-14T03:20:59.391Z,17.92
2023-12-14T03:26:08.524Z,22.50
2023-12-14T03:31:16.162Z,20.95
2023-12-14T03:36:23.930Z,21.25
2023-12-14T03:41:32.287Z,19.73
2023-12-14T03:46:38.306Z,18.77
2023-12-14T03:51:47.547Z,21.80
2023-12-14T03:56:56.196Z,18.15
2023-12-14T04:02:02.995Z,19.15
2023-12-14T04:07:08.858Z,19.90
2023-12-14T04:12:17.130Z,19.60
2023-12-14T04:17:22.839Z,17.00
2023-12-14T04:22:28.849Z,16.23
2023-12-14T04:27:37.701Z,19.20
2023-12-14T04:32:43.497Z,16.53
2023-12-14T04:37:50.450Z,15.77
2023-12-14T04:42:59.263Z,16.60
2023-12-14T04:48:05.710Z,17.65
2023-12-14T04:53:11.502Z,15.75
2023-12-14T04:58:22.604Z,26.67
2023-12-14T05:03:28.471Z,24.65
2023-12-14T05:08:34.332Z,25.43
2023-12-14T05:13:42.860Z,21.65
2023-12-14T05:18:48.857Z,18.90
2023-12-14T05:23:54.986Z,19.57
2023-12-14T05:29:03.307Z,21.23
2023-12-14T05:34:09.213Z,19.47
2023-12-14T05:39:15.393Z,17.23
2023-12-14T05:44:24.105Z,18.17
2023-12-14T05:49:30.202Z,17.17
2023-12-14T05:54:36.150Z,18.80
2023-12-14T05:59:48.507Z,19.03
2023-12-14T06:04:55.205Z,18.15
2023-12-14T06:10:03.739Z,17.73
2023-12-14T06:15:12.891Z,18.87
2023-12-14T06:20:22.567Z,18.67
2023-12-14T06:25:28.343Z,21.17
2023-12-14T06:30:36.687Z,20.10
2023-12-14T06:35:42.718Z,19.27
2023-12-14T06:40:48.654Z,20.97
2023-12-14T06:45:56.970Z,17.88
2023-12-14T06:51:03.291Z,17.10
2023-12-14T06:56:11.021Z,13.48
2023-12-14T07:01:20.810Z,19.55
2023-12-14T07:06:26.733Z,18.73
2023-12-14T07:11:34.196Z,16.80
2023-12-14T07:16:45.949Z,22.90
2023-12-14T07:21:51.696Z,22.98
2023-12-14T07:26:57.450Z,24.67
2023-12-14T07:32:05.921Z,27.17
2023-12-14T07:37:12.681Z,30.17
2023-12-14T07:42:21.312Z,30.40
2023-12-14T07:47:31.940Z,29.15
2023-12-14T07:52:37.928Z,23.75
2023-12-14T07:57:46.531Z,29.60
2023-12-14T08:02:54.790Z,28.95
2023-12-14T08:08:02.241Z,28.57
2023-12-14T08:13:08.155Z,28.38
2023-12-14T08:18:16.958Z,28.17
2023-12-14T08:23:23.119Z,28.00
2023-12-14T08:28:28.963Z,26.35
2023-12-14T08:33:38.194Z,27.10
2023-12-14T08:38:44.228Z,31.83
2023-12-14T08:43:50.067Z,31.67
2023-12-14T08:48:58.542Z,36.83
2023-12-14T08:54:04.055Z,35.90
2023-12-14T08:59:10.524Z,36.83
2023-12-14T09:04:19.091Z,35.38
2023-12-14T09:09:25.488Z,33.47
2023-12-14T09:14:31.061Z,31.53
2023-12-14T09:19:39.630Z,26.08
2023-12-14T09:24:48.809Z,27.93
2023-12-14T09:29:58.354Z,30.05
2023-12-14T09:35:07.990Z,36.47
2023-12-14T09:40:14.435Z,38.00
2023-12-14T09:45:23.029Z,32.38
2023-12-14T09:50:32.149Z,32.70
2023-12-14T09:55:40.113Z,33.88
2023-12-14T10:00:45.806Z,31.13
2023-12-14T10:05:55.027Z,33.03
2023-12-14T10:11:05.607Z,27.50
2023-12-14T10:16:11.627Z,27.37
2023-12-14T10:21:22.491Z,25.13
2023-12-14T10:26:29.006Z,29.88
2023-12-14T10:31:38.958Z,26.10
2023-12-14T10:36:49.702Z,26.80
2023-12-14T10:42:03.785Z,23.60
2023-12-14T10:47:17.136Z,25.52
2023-12-14T10:52:27.067Z,24.25
2023-12-14T10:57:33.839Z,20.23
2023-12-14T11:02:46.314Z,21.77
2023-12-14T11:07:57.103Z,19.50
2023-12-14T11:13:06.822Z,20.17
2023-12-14T11:18:30.684Z,21.63
2023-12-14T11:23:41.534Z,18.57
2023-12-14T11:28:47.499Z,22.15
2023-12-14T11:33:53.311Z,21.00
2023-12-14T11:39:02.189Z,21.25
2023-12-14T11:44:08.493Z,20.88
2023-12-14T11:49:14.038Z,23.50
2023-12-14T11:54:22.222Z,21.23
2023-12-14T11:59:27.777Z,17.07
2023-12-14T12:04:33.518Z,16.75
2023-12-14T12:09:46.822Z,14.55
2023-12-14T12:14:54.234Z,14.43
2023-12-14T12:19:59.901Z,16.30
2023-12-14T12:25:15.481Z,12.90
2023-12-14T12:30:21.666Z,13.43
2023-12-14T12:35:32.095Z,9.95
2023-12-14T12:40:41.167Z,12.67
2023-12-14T12:45:46.988Z,10.35
2023-12-14T12:50:52.520Z,7.43
2023-12-14T12:56:00.990Z,6.70
2023-12-14T13:01:06.717Z,7.70
2023-12-14T13:06:12.399Z,6.93
2023-12-14T13:11:20.578Z,9.63
2023-12-14T13:16:30.982Z,9.60
2023-12-14T13:21:37.677Z,6.38
2023-12-14T13:26:46.101Z,5.20
2023-12-14T13:31:52.769Z,6.23
2023-12-14T13:36:58.346Z,6.65
2023-12-14T13:42:06.890Z,5.60
2023-12-14T13:47:13.031Z,7.05
2023-12-14T13:52:18.529Z,5.90
2023-12-14T13:57:26.666Z,6.13
2023-12-14T14:02:36.028Z,6.25
2023-12-14T14:07:41.859Z,6.23
2023-12-14T14:12:50.337Z,6.78
2023-12-14T14:17:56.977Z,7.70
2023-12-14T14:23:03.179Z,5.97
2023-12-14T14:28:12.380Z,8.00
2023-12-14T14:33:19.352Z,7.03
2023-12-14T14:38:25.053Z,6.15
2023-12-14T14:43:33.348Z,6.70
2023-12-14T14:48:39.314Z,6.10
2023-12-14T14:53:48.535Z,6.10
2023-12-14T14:58:57.044Z,7.07
2023-12-14T15:04:03.159Z,7.18
2023-12-14T15:09:10.594Z,6.82
2023-12-14T15:14:19.211Z,6.07
2023-12-14T15:19:24.787Z,6.60
2023-12-14T15:24:30.214Z,7.13
2023-12-14T15:29:38.279Z,9.02
2023-12-14T15:34:43.674Z,7.13
2023-12-14T15:39:50.265Z,8.93
2023-12-14T15:44:58.793Z,8.65
2023-12-14T15:50:04.576Z,9.07
2023-12-14T15:55:11.360Z,7.25
2023-12-14T16:00:21.666Z,10.27
2023-12-14T16:05:28.266Z,10.33
2023-12-14T16:10:33.913Z,7.35
2023-12-14T16:15:42.248Z,10.80
2023-12-14T16:20:49.069Z,8.32
2023-12-14T16:26:00.184Z,9.80
2023-12-14T16:31:10.821Z,7.77
2023-12-14T16:36:19.467Z,8.98
2023-12-14T16:41:33.917Z,9.27
2023-12-14T16:46:42.921Z,10.13
2023-12-14T16:51:48.458Z,10.10
2023-12-14T16:56:53.945Z,11.07
2023-12-14T17:02:04.519Z,10.13
2023-12-14T17:07:10.279Z,11.80
2023-12-14T17:12:15.854Z,8.95
2023-12-14T17:17:35.586Z,10.25
2023-12-14T17:22:41.511Z,11.67
2023-12-14T17:27:50.815Z,11.43
2023-12-14T17:33:00.709Z,10.63
2023-12-14T17:38:08.207Z,12.30
2023-12-14T17:43:17.405Z,13.55
2023-12-14T17:48:30.881Z,11.80
2023-12-14T17:53:39.417Z,14.75
2023-12-14T17:58:49.072Z,11.63
2023-12-14T18:03:57.463Z,11.38
2023-12-14T18:09:05.478Z,12.25
2023-12-14T18:14:14.668Z,12.90
2023-12-14T18:19:28.646Z,10.30
2023-12-14T18:24:44.792Z,11.13
2023-12-14T18:29:50.771Z,11.13
2023-12-14T18:35:02.475Z,12.15
2023-12-14T18:40:10.569Z,12.67
2023-12-14T18:45:16.734Z,10.82
2023-12-14T18:50:28.597Z,13.67
2023-12-14T18:55:37.581Z,12.25
2023-12-14T19:00:45.921Z,13.07
2023-12-14T19:05:55.110Z,12.00
2023-12-14T19:11:02.174Z,15.15
2023-12-14T19:16:14.168Z,17.17
2023-12-14T19:21:24.942Z,15.88
2023-12-14T19:26:31.989Z,16.95
2023-12-14T19:31:38.453Z,17.63
2023-12-14T19:36:47.050Z,16.85
2023-12-14T19:41:53.016Z,16.70
2023-12-14T19:46:58.976Z,18.38
2023-12-14T19:52:09.397Z,17.85
2023-12-14T19:57:15.143Z,21.27
2023-12-14T20:02:21.106Z,19.38
2023-12-14T20:07:30.555Z,14.83
2023-12-14T20:12:38.005Z,15.85
2023-12-14T20:17:44.970Z,18.73
2023-12-14T20:22:53.778Z,17.83
2023-12-14T20:27:59.856Z,15.00
2023-12-14T20:33:06.641Z,16.10
2023-12-14T20:38:15.383Z,20.02
2023-12-14T20:43:21.221Z,19.98
2023-12-14T20:48:26.893Z,18.23
2023-12-14T20:53:38.473Z,14.32
2023-12-14T20:58:47.194Z,15.97
2023-12-14T21:03:54.189Z,18.45
2023-12-14T21:09:02.810Z,16.33
2023-12-14T21:14:13.382Z,18.67
2023-12-14T21:19:23.304Z,16.35
2023-12-14T21:24:32.173Z,17.23
2023-12-14T21:29:37.924Z,17.27
2023-12-14T21:34:43.956Z,17.10
2023-12-14T21:39:52.160Z,20.53
2023-12-14T21:44:57.794Z,16.58
2023-12-14T21:50:03.824Z,20.50
2023-12-14T21:55:12.562Z,17.33
2023-12-14T22:00:20.752Z,14.93
2023-12-14T22:05:26.534Z,16.77
2023-12-14T22:10:34.638Z,20.83
2023-12-14T22:15:40.228Z,18.67
2023-12-14T22:20:45.834Z,14.52
2023-12-14T22:25:57.442Z,16.13
2023-12-14T22:31:04.425Z,17.77
2023-12-14T22:36:11.089Z,17.45
2023-12-14T22:41:22.158Z,18.70
2023-12-14T22:46:27.966Z,16.98
2023-12-14T22:51:33.584Z,17.50
2023-12-14T22:56:41.796Z,15.97
2023-12-14T23:01:47.865Z,17.17
2023-12-14T23:06:53.524Z,18.93
2023-12-14T23:12:05.136Z,19.98
2023-12-14T23:17:10.789Z,17.20
2023-12-14T23:22:16.252Z,14.97
2023-12-14T23:27:25.579Z,17.13
2023-12-14T23:32:45.814Z,17.20
2023-12-14T23:37:54.355Z,16.27
2023-12-14T23:43:03.085Z,17.65
2023-12-14T23:48:09.216Z,15.60
2023-12-14T23:53:15.025Z,16.23
2023-12-14T23:58:28.937Z,18.20
